createdAt,value
2022-10-22T00:00:55.471Z,1.04
2022-10-22T00:01:55.620Z,1.04
2022-10-22T00:02:55.822Z,1.04
2022-10-22T00:03:55.931Z,1.04
2022-10-22T00:04:56.072Z,1.04
2022-10-22T00:05:56.233Z,1.04
2022-10-22T00:06:56.336Z,1.04
2022-10-22T00:07:56.477Z,1.04
2022-10-22T00:08:56.681Z,1.04
2022-10-22T00:09:56.790Z,1.04
2022-10-22T00:10:56.930Z,1.04
2022-10-22T00:11:57.043Z,1.04
2022-10-22T00:12:57.191Z,1.04
2022-10-22T00:13:57.304Z,1.04
2022-10-22T00:14:57.436Z,1.04
2022-10-22T00:15:57.538Z,1.04
2022-10-22T00:16:57.709Z,1.04
2022-10-22T00:17:57.857Z,1.04
2022-10-22T00:18:58.004Z,1.04
2022-10-22T00:19:58.157Z,1.04
2022-10-22T00:20:58.311Z,1.04
2022-10-22T00:21:58.455Z,1.04
2022-10-22T00:22:58.626Z,1.04
2022-10-22T00:23:58.764Z,1.04
2022-10-22T00:24:58.864Z,1.04
2022-10-22T00:25:58.972Z,1.04
2022-10-22T00:26:59.117Z,1.04
2022-10-22T00:27:59.212Z,1.04
2022-10-22T00:28:59.366Z,1.04
2022-10-22T00:29:59.518Z,1.04
2022-10-22T00:30:59.659Z,1.04
2022-10-22T00:31:59.785Z,1.04
2022-10-22T00:32:59.921Z,1.04
2022-10-22T00:34:00.013Z,1.04
2022-10-22T00:35:00.125Z,1.04
2022-10-22T00:36:00.315Z,1.04
2022-10-22T00:37:00.427Z,1.04
2022-10-22T00:38:00.511Z,1.04
2022-10-22T00:39:00.722Z,1.04
2022-10-22T00:40:00.835Z,1.04
2022-10-22T00:42:02.024Z,1.04
2022-10-22T00:43:01.276Z,1.04
2022-10-22T00:44:01.437Z,1.04
2022-10-22T00:45:01.596Z,1.04
2022-10-22T00:46:01.738Z,1.04
2022-10-22T00:47:01.886Z,1.04
2022-10-22T00:48:02.053Z,1.04
2022-10-22T00:49:02.206Z,1.04
2022-10-22T00:51:04.426Z,1.04
2022-10-22T00:52:02.711Z,1.04
2022-10-22T00:53:02.867Z,1.04
2022-10-22T00:54:02.967Z,1.04
2022-10-22T00:55:03.077Z,1.04
2022-10-22T00:56:03.204Z,1.04
2022-10-22T00:57:03.369Z,1.04
2022-10-22T00:58:03.521Z,1.04
2022-10-22T00:59:03.741Z,1.04
2022-10-22T01:00:03.835Z,1.04
2022-10-22T01:01:04.028Z,1.04
2022-10-22T01:02:04.068Z,1.04
2022-10-22T01:03:04.224Z,1.04
2022-10-22T01:04:04.373Z,1.04
2022-10-22T01:05:04.532Z,1.04
2022-10-22T01:06:04.681Z,1.04
2022-10-22T01:07:04.831Z,1.04
2022-10-22T01:08:05.034Z,1.04
2022-10-22T01:09:05.181Z,1.04
2022-10-22T01:10:05.285Z,1.04
2022-10-22T01:11:05.448Z,1.04
2022-10-22T01:12:05.591Z,1.04
2022-10-22T01:13:05.752Z,1.04
2022-10-22T01:14:05.895Z,1.04
2022-10-22T01:15:06.049Z,1.04
2022-10-22T01:16:06.138Z,1.04
2022-10-22T01:17:06.243Z,1.04
2022-10-22T01:18:06.403Z,1.04
2022-10-22T01:19:06.561Z,1.04
2022-10-22T01:20:06.702Z,1.04
2022-10-22T01:21:06.857Z,1.04
2022-10-22T01:22:07.000Z,1.04
2022-10-22T01:23:07.108Z,1.04
2022-10-22T01:24:07.266Z,1.04
2022-10-22T01:25:07.412Z,1.04
2022-10-22T01:26:07.571Z,1.04
2022-10-22T01:27:07.699Z,1.04
2022-10-22T01:28:07.812Z,1.04
2022-10-22T01:29:07.922Z,1.04
2022-10-22T01:30:08.077Z,1.04
2022-10-22T01:31:08.219Z,1.04
2022-10-22T01:32:08.325Z,1.04
2022-10-22T01:33:08.471Z,1.04
2022-10-22T01:34:08.580Z,1.04
2022-10-22T01:35:08.688Z,1.04
2022-10-22T01:36:08.828Z,1.04
2022-10-22T01:37:08.980Z,1.04
2022-10-22T01:38:09.133Z,1.04
2022-10-22T01:39:09.226Z,1.04
2022-10-22T01:40:09.382Z,1.04
2022-10-22T01:41:09.483Z,1.04
2022-10-22T01:42:09.719Z,1.04
2022-10-22T01:43:09.838Z,1.04
2022-10-22T01:44:09.991Z,1.04
2022-10-22T01:45:10.135Z,1.04
2022-10-22T01:46:10.332Z,1.04
2022-10-22T01:47:10.436Z,1.04
2022-10-22T01:48:10.584Z,1.04
2022-10-22T01:49:10.752Z,1.04
2022-10-22T01:50:10.903Z,1.04
2022-10-22T01:51:11.002Z,1.04
2022-10-22T01:52:11.164Z,1.04
2022-10-22T01:53:11.256Z,1.04
2022-10-22T01:54:11.367Z,1.04
2022-10-22T01:55:11.515Z,1.04
2022-10-22T01:56:11.677Z,1.04
2022-10-22T01:57:11.775Z,1.04
2022-10-22T01:58:11.870Z,1.04
2022-10-22T01:59:12.015Z,1.04
2022-10-22T02:00:12.194Z,1.04
2022-10-22T02:01:12.403Z,1.04
2022-10-22T02:02:12.510Z,1.04
2022-10-22T02:03:12.651Z,1.04
2022-10-22T02:04:12.810Z,1.04
2022-10-22T02:05:12.944Z,1.04
2022-10-22T02:06:13.085Z,1.04
2022-10-22T02:07:13.229Z,1.04
2022-10-22T02:08:13.337Z,1.04
2022-10-22T02:09:13.552Z,1.04
2022-10-22T02:10:13.644Z,1.04
2022-10-22T02:11:13.788Z,1.04
2022-10-22T02:12:13.943Z,1.04
2022-10-22T02:13:14.092Z,1.04
2022-10-22T02:14:14.248Z,1.04
2022-10-22T02:15:14.398Z,1.04
2022-10-22T02:16:14.542Z,1.04
2022-10-22T02:17:14.713Z,1.04
2022-10-22T02:18:14.856Z,1.04
2022-10-22T02:19:15.007Z,1.04
2022-10-22T02:20:15.164Z,1.04
2022-10-22T02:21:15.311Z,1.04
2022-10-22T02:22:15.460Z,1.04
2022-10-22T02:23:15.607Z,1.04
2022-10-22T02:24:15.759Z,1.04
2022-10-22T02:25:15.915Z,1.04
2022-10-22T02:26:16.066Z,1.04
2022-10-22T02:27:16.227Z,1.04
2022-10-22T02:28:16.371Z,1.04
2022-10-22T02:29:16.477Z,1.04
2022-10-22T02:31:17.352Z,1.04
2022-10-22T02:32:16.920Z,1.04
2022-10-22T02:33:17.086Z,1.04
2022-10-22T02:34:17.241Z,1.04
2022-10-22T02:35:17.378Z,1.04
2022-10-22T02:36:17.535Z,1.04
2022-10-22T02:37:17.679Z,1.04
2022-10-22T02:38:17.833Z,1.04
2022-10-22T02:39:17.956Z,1.04
2022-10-22T02:40:18.094Z,1.04
2022-10-22T02:41:18.276Z,1.04
2022-10-22T02:42:18.386Z,1.04
2022-10-22T02:43:18.486Z,1.04
2022-10-22T02:44:18.631Z,1.04
2022-10-22T02:45:18.808Z,1.04
2022-10-22T02:46:18.942Z,1.04
2022-10-22T02:47:19.108Z,1.04
2022-10-22T02:49:19.997Z,1.04
2022-10-22T02:50:19.511Z,1.04
2022-10-22T02:51:19.656Z,1.04
2022-10-22T02:52:19.824Z,1.04
2022-10-22T02:53:19.969Z,1.04
2022-10-22T02:54:20.069Z,1.04
2022-10-22T02:55:20.212Z,1.04
2022-10-22T02:56:20.361Z,1.04
2022-10-22T02:58:21.489Z,1.04
2022-10-22T02:59:20.708Z,1.04
2022-10-22T03:00:20.872Z,1.04
2022-10-22T03:01:21.063Z,1.04
2022-10-22T03:02:21.178Z,1.04
2022-10-22T03:03:21.323Z,1.04
2022-10-22T03:04:21.469Z,1.04
2022-10-22T03:05:21.635Z,1.04
2022-10-22T03:06:21.825Z,1.04
2022-10-22T03:07:21.928Z,1.04
2022-10-22T03:08:22.083Z,1.04
2022-10-22T03:09:24.027Z,1.04
2022-10-22T03:10:22.386Z,1.04
2022-10-22T03:11:22.536Z,1.04
2022-10-22T03:12:22.689Z,1.04
2022-10-22T03:13:22.847Z,1.04
2022-10-22T03:14:23.004Z,1.04
2022-10-22T03:15:23.123Z,1.04
2022-10-22T03:16:23.241Z,1.04
2022-10-22T03:17:23.341Z,1.04
2022-10-22T03:18:23.489Z,1.04
2022-10-22T03:19:23.607Z,1.04
2022-10-22T03:20:23.749Z,1.04
2022-10-22T03:21:23.909Z,1.04
2022-10-22T03:22:24.041Z,1.04
2022-10-22T03:23:24.169Z,1.04
2022-10-22T03:24:24.319Z,1.04
2022-10-22T03:25:24.464Z,1.04
2022-10-22T03:26:24.616Z,1.04
2022-10-22T03:27:24.769Z,1.04
2022-10-22T03:28:24.908Z,1.04
2022-10-22T03:29:25.090Z,1.04
2022-10-22T03:30:25.222Z,1.04
2022-10-22T03:31:25.376Z,1.04
2022-10-22T03:32:25.528Z,1.04
2022-10-22T03:33:25.629Z,1.04
2022-10-22T03:34:25.778Z,1.04
2022-10-22T03:35:25.931Z,1.04
2022-10-22T03:36:26.041Z,1.04
2022-10-22T03:37:26.186Z,1.04
2022-10-22T03:38:26.332Z,1.04
2022-10-22T03:39:26.489Z,1.04
2022-10-22T03:40:26.590Z,1.04
2022-10-22T03:41:26.755Z,1.04
2022-10-22T03:42:26.898Z,1.04
2022-10-22T03:43:26.992Z,1.04
2022-10-22T03:44:27.142Z,1.04
2022-10-22T03:45:27.308Z,1.04
2022-10-22T03:46:27.393Z,1.04
2022-10-22T03:47:27.539Z,1.04
2022-10-22T03:48:27.715Z,1.04
2022-10-22T03:49:27.812Z,1.04
2022-10-22T03:50:27.961Z,1.04
2022-10-22T03:51:28.107Z,1.04
2022-10-22T03:52:28.296Z,1.04
2022-10-22T03:53:28.428Z,1.04
2022-10-22T03:54:28.577Z,1.04
2022-10-22T03:55:28.709Z,1.04
2022-10-22T03:56:28.868Z,1.04
2022-10-22T03:57:28.979Z,1.04
2022-10-22T03:58:29.142Z,1.04
2022-10-22T03:59:29.293Z,1.04
2022-10-22T04:00:29.387Z,1.04
2022-10-22T04:01:29.595Z,1.04
2022-10-22T04:02:29.676Z,1.04
2022-10-22T04:03:29.824Z,1.04
2022-10-22T04:04:29.976Z,1.04
2022-10-22T04:05:30.138Z,1.04
2022-10-22T04:06:30.294Z,1.04
2022-10-22T04:07:30.436Z,1.04
2022-10-22T04:08:30.560Z,1.04
2022-10-22T04:09:30.692Z,1.04
2022-10-22T04:10:30.847Z,1.04
2022-10-22T04:11:30.999Z,1.04
2022-10-22T04:12:31.153Z,1.04
2022-10-22T04:13:31.294Z,1.04
2022-10-22T04:14:31.452Z,1.04
2022-10-22T04:15:31.616Z,1.04
2022-10-22T04:16:31.750Z,1.04
2022-10-22T04:17:31.898Z,1.04
2022-10-22T04:18:32.020Z,1.04
2022-10-22T04:19:32.165Z,1.04
2022-10-22T04:20:32.284Z,1.04
2022-10-22T04:21:32.418Z,1.04
2022-10-22T04:22:32.580Z,1.04
2022-10-22T04:23:32.736Z,1.04
2022-10-22T04:24:32.866Z,1.04
2022-10-22T04:25:32.974Z,1.04
2022-10-22T04:26:33.118Z,1.04
2022-10-22T04:27:33.239Z,1.04
2022-10-22T04:28:33.370Z,1.04
2022-10-22T04:29:33.520Z,1.04
2022-10-22T04:30:33.684Z,1.04
2022-10-22T04:31:33.774Z,1.04
2022-10-22T04:32:33.934Z,1.04
2022-10-22T04:33:34.084Z,1.04
2022-10-22T04:34:34.183Z,1.04
2022-10-22T04:35:34.332Z,1.04
2022-10-22T04:36:34.483Z,1.04
2022-10-22T04:37:34.638Z,1.04
2022-10-22T04:38:34.783Z,1.04
2022-10-22T04:39:34.942Z,1.04
2022-10-22T04:40:35.090Z,1.04
2022-10-22T04:41:35.233Z,1.04
2022-10-22T04:42:35.462Z,1.04
2022-10-22T04:43:35.552Z,1.04
2022-10-22T04:44:35.697Z,1.04
2022-10-22T04:45:35.854Z,1.04
2022-10-22T04:46:35.993Z,1.04
2022-10-22T04:47:36.158Z,1.04
2022-10-22T04:48:36.314Z,1.04
2022-10-22T04:49:36.461Z,1.04
2022-10-22T04:50:36.600Z,1.04
2022-10-22T04:51:36.768Z,1.04
2022-10-22T04:52:36.920Z,1.04
2022-10-22T04:53:37.013Z,1.04
2022-10-22T04:54:37.162Z,1.04
2022-10-22T04:55:37.333Z,1.04
2022-10-22T04:56:37.413Z,1.04
2022-10-22T04:57:37.667Z,1.04
2022-10-22T04:58:37.723Z,1.04
2022-10-22T04:59:37.915Z,1.04
2022-10-22T05:00:38.108Z,1.04
2022-10-22T05:01:39.856Z,1.04
2022-10-22T05:02:38.335Z,1.04
2022-10-22T05:03:38.473Z,1.04
2022-10-22T05:04:38.639Z,1.04
2022-10-22T05:05:38.801Z,1.04
2022-10-22T05:06:38.949Z,1.04
2022-10-22T05:07:39.210Z,1.04
2022-10-22T05:08:39.216Z,1.04
2022-10-22T05:09:39.339Z,1.04
2022-10-22T05:10:39.450Z,1.04
2022-10-22T05:11:39.592Z,2
2022-10-22T05:12:39.751Z,2
2022-10-22T05:13:39.902Z,2
2022-10-22T05:14:42.606Z,2
2022-10-22T05:15:40.198Z,2
2022-10-22T05:16:40.422Z,3.04
2022-10-22T05:17:40.686Z,3.04
2022-10-22T05:18:40.604Z,4
2022-10-22T05:19:40.756Z,4
2022-10-22T05:20:40.900Z,5.04
2022-10-22T05:21:41.052Z,5.04
2022-10-22T05:22:41.174Z,6
2022-10-22T05:23:41.312Z,7.04
2022-10-22T05:24:41.466Z,8
2022-10-22T05:25:41.553Z,10
2022-10-22T05:26:41.714Z,12
2022-10-22T05:27:42.206Z,14
2022-10-22T05:28:42.035Z,16
2022-10-22T05:29:42.176Z,18
2022-10-22T05:30:42.267Z,21.04
2022-10-22T05:31:42.434Z,23.04
2022-10-22T05:32:42.582Z,26
2022-10-22T05:33:42.726Z,28
2022-10-22T05:34:42.883Z,30
2022-10-22T05:35:46.575Z,33.04
2022-10-22T05:36:43.172Z,35.04
2022-10-22T05:37:43.565Z,38
2022-10-22T05:38:43.480Z,40
2022-10-22T05:39:43.638Z,46
2022-10-22T05:40:43.734Z,53.04
2022-10-22T05:41:43.830Z,60
2022-10-22T05:42:44.000Z,65.04
2022-10-22T05:43:44.157Z,68
2022-10-22T05:44:44.244Z,69.04
2022-10-22T05:45:44.393Z,70
2022-10-22T05:46:44.574Z,71.04
2022-10-22T05:47:44.665Z,73.04
2022-10-22T05:48:44.813Z,75.04
2022-10-22T05:49:44.952Z,78
2022-10-22T05:50:45.110Z,85.04
2022-10-22T05:51:45.259Z,92
2022-10-22T05:52:45.410Z,104
2022-10-22T05:53:45.513Z,116
2022-10-22T05:54:45.670Z,132
2022-10-22T05:55:45.824Z,153.04
2022-10-22T05:56:45.984Z,186.08
2022-10-22T05:57:46.119Z,212
2022-10-22T05:58:46.234Z,234.08
2022-10-22T05:59:46.369Z,256
2022-10-22T06:00:46.513Z,268
2022-10-22T06:01:46.728Z,272
2022-10-22T06:02:46.780Z,270.08
2022-10-22T06:03:46.948Z,265.12
2022-10-22T06:04:47.090Z,267.04
2022-10-22T06:05:47.231Z,285.12
2022-10-22T06:06:47.338Z,305.12
2022-10-22T06:07:47.448Z,321.12
2022-10-22T06:08:47.635Z,350.08
2022-10-22T06:09:47.744Z,384
2022-10-22T06:10:47.894Z,402.24
2022-10-22T06:11:48.057Z,399.04
2022-10-22T06:12:48.207Z,388.16
2022-10-22T06:13:48.355Z,368
2022-10-22T06:14:48.498Z,358.08
2022-10-22T06:15:48.645Z,357.12
2022-10-22T06:16:48.759Z,352
2022-10-22T06:17:48.905Z,354.24
2022-10-22T06:18:49.058Z,374.08
2022-10-22T06:19:49.203Z,408
2022-10-22T06:20:49.375Z,428.16
2022-10-22T06:21:49.528Z,431.04
2022-10-22T06:22:49.617Z,418.24
2022-10-22T06:23:49.765Z,401.28
2022-10-22T06:24:49.914Z,386.24
2022-10-22T06:25:50.020Z,365.12
2022-10-22T06:26:50.126Z,344
2022-10-22T06:27:50.273Z,332.16
2022-10-22T06:28:50.428Z,310.08
2022-10-22T06:29:50.582Z,318.08
2022-10-22T06:30:50.677Z,322.08
2022-10-22T06:31:50.868Z,352
2022-10-22T06:32:50.976Z,394.24
2022-10-22T06:33:51.130Z,397.12
2022-10-22T06:34:51.283Z,375.04
2022-10-22T06:35:51.380Z,324
2022-10-22T06:36:51.547Z,244
2022-10-22T06:37:51.692Z,224
2022-10-22T06:38:51.849Z,237.12
2022-10-22T06:39:51.999Z,278.08
2022-10-22T06:40:52.125Z,296
2022-10-22T06:41:52.190Z,301.12
2022-10-22T06:42:52.304Z,310.08
2022-10-22T06:43:52.446Z,345.28
2022-10-22T06:44:52.591Z,411.2
2022-10-22T06:45:52.694Z,490.24
2022-10-22T06:46:52.864Z,579.2
2022-10-22T06:47:53.020Z,637.12
2022-10-22T06:48:53.269Z,648
2022-10-22T06:49:53.415Z,680.32
2022-10-22T06:50:53.526Z,615.04
2022-10-22T06:51:53.667Z,580.16
2022-10-22T06:52:53.822Z,780.16
2022-10-22T06:53:53.984Z,821.12
2022-10-22T06:54:54.162Z,681.6
2022-10-22T06:55:54.363Z,501.12
2022-10-22T06:56:54.502Z,512
2022-10-22T06:57:54.648Z,773.12
2022-10-22T06:58:54.803Z,697.6
2022-10-22T06:59:54.932Z,636.16
2022-10-22T07:00:55.122Z,796.16
2022-10-22T07:01:55.168Z,897.28
2022-10-22T07:02:56.398Z,889.6
2022-10-22T07:03:55.400Z,1001.6
2022-10-22T07:04:55.538Z,997.12
2022-10-22T07:05:55.715Z,1003.52
2022-10-22T07:06:55.844Z,973.44
2022-10-22T07:07:55.987Z,1169.28
2022-10-22T07:08:56.281Z,1441.28
2022-10-22T07:09:56.248Z,1689.6
2022-10-22T07:10:56.384Z,2016
2022-10-22T07:11:56.491Z,2225.92
2022-10-22T07:12:56.657Z,2177.28
2022-10-22T07:13:56.760Z,2174.72
2022-10-22T07:14:56.898Z,1735.68
2022-10-22T07:15:56.999Z,1649.92
2022-10-22T07:16:57.158Z,1345.28
2022-10-22T07:17:57.318Z,1363.2
2022-10-22T07:18:57.464Z,1418.24
2022-10-22T07:19:57.566Z,1418.24
2022-10-22T07:20:57.709Z,1637.12
2022-10-22T07:21:57.870Z,2078.72
2022-10-22T07:22:58.054Z,2398.72
2022-10-22T07:23:58.181Z,2464
2022-10-22T07:24:58.323Z,2428.16
2022-10-22T07:25:58.480Z,2391.04
2022-10-22T07:26:58.621Z,2434.56
2022-10-22T07:27:58.721Z,2383.36
2022-10-22T07:28:58.822Z,2223.36
2022-10-22T07:29:58.970Z,2088.96
2022-10-22T07:30:59.090Z,2030.08
2022-10-22T07:31:59.236Z,2003.2
2022-10-22T07:32:59.379Z,1990.4
2022-10-22T07:33:59.536Z,1989.12
2022-10-22T07:34:59.684Z,2012.16
2022-10-22T07:35:59.789Z,2067.2
2022-10-22T07:36:59.937Z,2163.2
2022-10-22T07:38:00.107Z,2270.72
2022-10-22T07:39:00.249Z,2421.76
2022-10-22T07:40:02.826Z,2544.64
2022-10-22T07:41:00.569Z,2670.08
2022-10-22T07:42:00.698Z,2823.68
2022-10-22T07:43:00.850Z,2903.04
2022-10-22T07:44:01.010Z,2913.28
2022-10-22T07:45:01.150Z,2882.56
2022-10-22T07:46:01.245Z,2890.24
2022-10-22T07:47:01.396Z,2887.68
2022-10-22T07:48:01.565Z,2882.56
2022-10-22T07:49:01.713Z,2862.08
2022-10-22T07:50:01.877Z,2849.28
2022-10-22T07:51:02.019Z,2803.2
2022-10-22T07:52:02.164Z,2749.44
2022-10-22T07:53:02.257Z,2670.08
2022-10-22T07:54:02.405Z,2580.48
2022-10-22T07:55:02.544Z,2489.6
2022-10-22T07:56:02.711Z,2449.92
2022-10-22T07:57:02.818Z,2442.24
2022-10-22T07:58:03.014Z,2464
2022-10-22T07:59:03.207Z,2470.4
2022-10-22T08:00:03.327Z,2494.72
2022-10-22T08:01:03.529Z,2533.12
2022-10-22T08:02:03.595Z,2615.04
2022-10-22T08:03:03.724Z,2657.28
2022-10-22T08:04:03.886Z,2741.76
2022-10-22T08:05:04.045Z,2826.24
2022-10-22T08:06:04.180Z,2900.48
2022-10-22T08:07:04.331Z,2964.48
2022-10-22T08:08:04.541Z,3013.12
2022-10-22T08:09:04.722Z,3082.24
2022-10-22T08:10:04.859Z,3169.28
2022-10-22T08:11:04.896Z,3338.24
2022-10-22T08:12:04.990Z,3507.2
2022-10-22T08:13:05.143Z,3709.44
2022-10-22T08:14:05.297Z,3875.84
2022-10-22T08:15:05.447Z,4072.96
2022-10-22T08:16:05.601Z,4326.4
2022-10-22T08:17:05.746Z,4628.48
2022-10-22T08:18:05.905Z,4861.44
2022-10-22T08:19:06.049Z,5130.24
2022-10-22T08:20:06.205Z,5498.88
2022-10-22T08:21:06.376Z,5800.96
2022-10-22T08:22:06.511Z,6149.12
2022-10-22T08:23:06.668Z,6333.44
2022-10-22T08:25:07.909Z,6497.28
2022-10-22T08:26:07.057Z,6456.32
2022-10-22T08:27:07.216Z,6379.52
2022-10-22T08:28:07.372Z,6353.92
2022-10-22T08:29:07.530Z,6405.12
2022-10-22T08:30:07.676Z,6522.88
2022-10-22T08:31:07.932Z,6814.72
2022-10-22T08:32:07.975Z,7142.4
2022-10-22T08:33:08.076Z,7608.32
2022-10-22T08:34:08.233Z,8048.64
2022-10-22T08:35:08.333Z,8545.28
2022-10-22T08:36:08.485Z,8924.16
2022-10-22T08:37:08.633Z,9323.52
2022-10-22T08:38:08.795Z,9543.68
2022-10-22T08:39:08.925Z,9702.399
2022-10-22T08:40:09.083Z,9850.88
2022-10-22T08:41:09.234Z,10009.6
2022-10-22T08:42:09.394Z,10204.16
2022-10-22T08:43:09.544Z,10465.279
2022-10-22T08:44:09.712Z,10690.56
2022-10-22T08:45:09.844Z,10895.359
2022-10-22T08:46:09.997Z,11151.359
2022-10-22T08:47:10.154Z,11397.12
2022-10-22T08:48:10.302Z,11796.479
2022-10-22T08:49:10.464Z,12226.56
2022-10-22T08:50:10.611Z,12759.04
2022-10-22T08:51:10.753Z,14039.04
2022-10-22T08:52:10.915Z,14499.84
2022-10-22T08:53:11.014Z,14776.319
2022-10-22T08:54:11.168Z,14909.439
2022-10-22T08:55:11.312Z,14940.159
2022-10-22T08:56:11.420Z,14868.479
2022-10-22T08:57:11.563Z,14796.8
2022-10-22T08:58:11.729Z,14909.439
2022-10-22T08:59:11.877Z,15390.72
2022-10-22T09:00:12.032Z,16005.12
2022-10-22T09:01:12.124Z,16977.92
2022-10-22T09:02:12.224Z,18012.16
2022-10-22T09:03:12.389Z,19712
2022-10-22T09:04:12.535Z,21032.96
2022-10-22T09:05:12.684Z,22302.72
2022-10-22T09:06:12.842Z,23818.24
2022-10-22T09:07:12.986Z,25845.76
2022-10-22T09:08:13.137Z,26501.12
2022-10-22T09:09:13.389Z,25354.24
2022-10-22T09:10:13.444Z,22896.64
2022-10-22T09:11:13.558Z,21913.6
2022-10-22T09:12:17.580Z,21401.6
2022-10-22T09:13:13.865Z,20940.8
2022-10-22T09:15:15.263Z,20070.4
2022-10-22T09:16:14.306Z,19998.72
2022-10-22T09:17:14.470Z,19886.08
2022-10-22T09:18:14.608Z,20203.52
2022-10-22T09:19:14.752Z,20715.52
2022-10-22T09:20:14.903Z,21381.12
2022-10-22T09:21:15.049Z,21667.84
2022-10-22T09:22:15.162Z,21381.12
2022-10-22T09:23:15.304Z,20746.24
2022-10-22T09:24:15.459Z,19220.48
2022-10-22T09:25:15.608Z,17756.16
2022-10-22T09:26:15.772Z,16896
2022-10-22T09:27:15.866Z,16138.239
2022-10-22T09:28:16.020Z,15452.159
2022-10-22T09:29:16.165Z,15206.399
2022-10-22T09:30:16.318Z,15329.279
2022-10-22T09:31:16.469Z,16035.84
2022-10-22T09:32:16.624Z,16844.8
2022-10-22T09:33:19.029Z,17971.2
2022-10-22T09:34:16.881Z,18534.4
2022-10-22T09:35:17.033Z,18432
2022-10-22T09:36:17.186Z,18063.36
2022-10-22T09:37:17.335Z,17715.2
2022-10-22T09:38:17.487Z,17643.52
2022-10-22T09:39:17.652Z,17664
2022-10-22T09:40:17.820Z,17715.2
2022-10-22T09:41:17.944Z,17766.4
2022-10-22T09:42:18.088Z,17653.76
2022-10-22T09:43:18.249Z,17367.04
2022-10-22T09:44:18.394Z,16844.8
2022-10-22T09:45:18.548Z,16076.8
2022-10-22T09:46:18.696Z,15544.319
2022-10-22T09:47:18.804Z,15155.199
2022-10-22T09:48:18.957Z,14970.88
2022-10-22T09:49:19.120Z,15042.56
2022-10-22T09:50:19.252Z,15319.04
2022-10-22T09:51:19.371Z,15667.199
2022-10-22T09:52:19.528Z,15882.239
2022-10-22T09:53:19.674Z,16046.08
2022-10-22T09:54:19.817Z,16128
2022-10-22T09:55:19.970Z,16179.199
2022-10-22T09:56:20.123Z,16220.159
2022-10-22T09:57:20.277Z,16353.279
2022-10-22T09:58:20.426Z,16773.12
2022-10-22T09:59:20.522Z,17213.44
2022-10-22T10:00:20.682Z,18083.84
2022-10-22T10:01:20.825Z,19005.44
2022-10-22T10:02:37.367Z,20121.6
2022-10-22T10:03:21.170Z,20879.36
2022-10-22T10:04:21.313Z,21381.12
2022-10-22T10:05:21.395Z,21401.6
2022-10-22T10:06:21.525Z,21217.28
2022-10-22T10:07:21.644Z,21258.24
2022-10-22T10:08:21.795Z,21831.68
2022-10-22T10:09:21.975Z,22425.6
2022-10-22T10:10:22.039Z,24678.4
2022-10-22T10:11:25.573Z,36085.76
2022-10-22T10:12:22.346Z,27996.16
2022-10-22T10:13:22.502Z,25231.36
2022-10-22T10:14:22.652Z,24760.32
2022-10-22T10:15:22.799Z,25128.96
2022-10-22T10:16:22.946Z,26112
2022-10-22T10:17:23.099Z,27750.4
2022-10-22T10:18:23.270Z,29962.24
2022-10-22T10:19:23.410Z,41984
2022-10-22T10:20:23.511Z,44113.92
2022-10-22T10:21:23.659Z,65044.48
2022-10-22T10:22:23.761Z,91504.64
2022-10-22T10:23:24.614Z,71106.56
2022-10-22T10:24:24.086Z,80814.08
2022-10-22T10:25:24.232Z,64102.4
2022-10-22T10:26:24.327Z,52715.52
2022-10-22T10:27:24.471Z,43130.88
2022-10-22T10:28:24.622Z,37888
2022-10-22T10:29:24.806Z,36392.96
2022-10-22T10:30:24.928Z,26931.2
2022-10-22T10:31:25.074Z,25128.96
2022-10-22T10:32:25.236Z,24207.36
2022-10-22T10:33:25.383Z,23265.28
2022-10-22T10:34:25.545Z,22323.2
2022-10-22T10:35:25.692Z,21176.32
2022-10-22T10:36:25.829Z,19281.92
2022-10-22T10:37:25.977Z,17848.32
2022-10-22T10:38:27.398Z,15575.04
2022-10-22T10:39:26.252Z,14151.68
2022-10-22T10:40:26.407Z,12328.96
2022-10-22T10:41:26.544Z,12697.6
2022-10-22T10:42:26.696Z,13834.239
2022-10-22T10:43:26.860Z,16384
2022-10-22T10:44:26.949Z,20224
2022-10-22T10:45:27.095Z,20531.2
2022-10-22T10:46:27.241Z,23633.92
2022-10-22T10:47:27.348Z,24862.72
2022-10-22T10:48:27.454Z,20899.84
2022-10-22T10:49:27.602Z,19558.4
2022-10-22T10:50:27.697Z,20254.72
2022-10-22T10:51:27.843Z,22568.96
2022-10-22T10:52:27.945Z,24821.76
2022-10-22T10:53:28.096Z,27115.52
2022-10-22T10:54:28.329Z,25067.52
2022-10-22T10:55:28.413Z,29757.44
2022-10-22T10:56:28.574Z,31887.36
2022-10-22T10:57:28.726Z,39874.56
2022-10-22T10:58:28.884Z,35512.32
2022-10-22T10:59:28.979Z,41717.76
2022-10-22T11:00:29.137Z,45793.28
2022-10-22T11:01:29.312Z,43704.32
2022-10-22T11:02:29.424Z,56074.24
2022-10-22T11:03:29.574Z,33873.92
2022-10-22T11:04:29.731Z,32030.72
2022-10-22T11:05:29.885Z,47390.72
2022-10-22T11:06:30.036Z,46284.8
2022-10-22T11:07:34.474Z,32604.16
2022-10-22T11:08:30.341Z,32583.68
2022-10-22T11:09:30.496Z,37806.08
2022-10-22T11:10:30.640Z,33935.36
2022-10-22T11:11:30.797Z,52224
2022-10-22T11:12:30.937Z,97320.96
2022-10-22T11:13:31.114Z,44400.64
2022-10-22T11:14:31.260Z,37949.44
2022-10-22T11:15:31.403Z,54886.4
2022-10-22T11:16:31.553Z,28180.48
2022-10-22T11:17:31.656Z,55255.04
2022-10-22T11:18:31.749Z,58327.04
2022-10-22T11:19:50.057Z,94863.36
2022-10-22T11:20:32.058Z,91832.32
2022-10-22T11:21:32.218Z,90603.52
2022-10-22T11:22:32.355Z,89620.48
2022-10-22T11:23:32.512Z,89948.16
2022-10-22T11:24:32.671Z,83886.08
2022-10-22T11:25:32.805Z,88719.36
2022-10-22T11:26:32.975Z,90439.68
2022-10-22T11:27:33.125Z,89784.32
2022-10-22T11:28:33.285Z,82288.64
2022-10-22T11:29:33.428Z,87900.16
2022-10-22T11:30:33.585Z,87162.88
2022-10-22T11:31:33.720Z,85114.88
2022-10-22T11:32:33.911Z,80650.24
2022-10-22T11:33:34.056Z,85852.16
2022-10-22T11:34:34.675Z,86016
2022-10-22T11:35:34.279Z,85032.96
2022-10-22T11:36:34.421Z,84541.44
2022-10-22T11:37:34.544Z,83681.28
2022-10-22T11:38:35.171Z,82493.44
2022-10-22T11:39:35.196Z,82616.32
2022-10-22T11:40:34.933Z,81797.12
2022-10-22T11:41:35.041Z,81592.32
2022-10-22T11:42:35.199Z,81469.44
2022-10-22T11:43:35.291Z,81141.76
2022-10-22T11:44:35.458Z,70451.2
2022-10-22T11:45:35.547Z,81305.6
2022-10-22T11:46:35.647Z,81346.56
2022-10-22T11:47:35.770Z,64552.96
2022-10-22T11:48:35.903Z,82534.4
2022-10-22T11:49:36.067Z,82452.48
2022-10-22T11:50:36.212Z,82534.4
2022-10-22T11:51:36.370Z,82698.24
2022-10-22T11:52:36.511Z,83312.64
2022-10-22T11:53:36.606Z,83435.52
2022-10-22T11:54:36.773Z,83681.28
2022-10-22T11:55:36.916Z,81100.8
2022-10-22T11:56:37.084Z,80240.64
2022-10-22T11:57:37.218Z,67584
2022-10-22T11:58:37.371Z,33443.84
2022-10-22T11:59:37.537Z,26664.96
2022-10-22T12:00:37.680Z,30945.28
2022-10-22T12:01:37.848Z,44277.76
2022-10-22T12:02:38.109Z,43950.08
2022-10-22T12:03:38.029Z,33136.64
2022-10-22T12:04:38.290Z,38072.32
2022-10-22T12:05:38.289Z,51200
2022-10-22T12:06:38.432Z,43294.72
2022-10-22T12:07:38.603Z,25231.36
2022-10-22T12:08:38.791Z,21954.56
2022-10-22T12:09:38.903Z,19015.68
2022-10-22T12:10:39.037Z,86507.52
2022-10-22T12:11:39.196Z,40304.64
2022-10-22T12:12:39.637Z,57999.36
2022-10-22T12:13:39.447Z,42639.36
2022-10-22T12:14:39.594Z,58368
2022-10-22T12:15:39.706Z,30187.52
2022-10-22T12:16:56.019Z,31354.88
2022-10-22T12:17:39.951Z,27791.36
2022-10-22T12:18:40.066Z,26255.36
2022-10-22T12:19:40.218Z,27484.16
2022-10-22T12:20:40.359Z,32870.4
2022-10-22T12:21:40.514Z,62504.96
2022-10-22T12:22:40.909Z,70533.12
2022-10-22T12:23:40.823Z,62545.92
2022-10-22T12:24:40.982Z,15400.96
2022-10-22T12:25:41.128Z,16476.16
2022-10-22T12:26:41.219Z,67543.04
2022-10-22T12:27:41.645Z,68935.68
2022-10-22T12:28:41.426Z,69427.2
2022-10-22T12:29:41.576Z,50585.6
2022-10-22T12:30:41.713Z,23859.2
2022-10-22T12:31:41.870Z,9932.8
2022-10-22T12:32:42.022Z,8232.96
2022-10-22T12:33:42.181Z,7669.76
2022-10-22T12:34:42.359Z,6784
2022-10-22T12:35:42.388Z,6727.68
2022-10-22T12:36:42.529Z,6635.52
2022-10-22T12:37:42.962Z,6860.8
2022-10-22T12:38:42.878Z,9344
2022-10-22T12:39:42.993Z,11980.8
2022-10-22T12:40:44.518Z,9594.88
2022-10-22T12:41:43.306Z,10895.359
2022-10-22T12:42:43.463Z,21196.8
2022-10-22T12:43:43.602Z,43868.16
2022-10-22T12:44:43.763Z,52592.64
2022-10-22T12:45:43.889Z,63528.96
2022-10-22T12:46:43.994Z,66314.24
2022-10-22T12:47:44.160Z,56811.52